createdAt,value
2018-09-12T00:01:10.153Z,15.20
2018-09-12T00:03:38.748Z,15.13
2018-09-12T00:06:13.870Z,13.57
2018-09-12T00:08:42.694Z,13.80
2018-09-12T00:11:11.292Z,13.80
2018-09-12T00:13:39.912Z,13.73
2018-09-12T00:16:08.562Z,13.20
2018-09-12T00:18:37.139Z,13.47
2018-09-12T00:21:05.995Z,13.90
2018-09-12T00:23:34.564Z,12.40
2018-09-12T00:26:03.433Z,12.23
2018-09-12T00:28:32.070Z,11.70
2018-09-12T00:31:00.664Z,11.70
2018-09-12T00:33:29.252Z,12.00
2018-09-12T00:35:57.869Z,12.00
2018-09-12T00:38:26.444Z,11.57
2018-09-12T00:40:55.043Z,12.43
2018-09-12T00:43:23.633Z,10.90
2018-09-12T00:45:52.242Z,10.60
2018-09-12T00:48:20.832Z,11.23
2018-09-12T00:50:49.451Z,10.83
2018-09-12T00:53:18.017Z,11.57
2018-09-12T00:55:46.641Z,10.63
2018-09-12T00:58:15.220Z,10.83
2018-09-12T01:00:43.822Z,10.80
2018-09-12T01:03:12.427Z,11.07
2018-09-12T01:05:41.919Z,10.30
2018-09-12T01:08:11.822Z,10.80
2018-09-12T01:10:40.483Z,11.03
2018-09-12T01:13:09.542Z,10.60
2018-09-12T01:15:38.163Z,9.90
2018-09-12T01:18:06.814Z,10.17
2018-09-12T01:20:35.390Z,10.60
2018-09-12T01:23:03.995Z,9.80
2018-09-12T01:25:32.582Z,9.53
2018-09-12T01:28:01.204Z,10.50
2018-09-12T01:30:29.773Z,10.27
2018-09-12T01:32:58.377Z,10.73
2018-09-12T01:35:26.941Z,9.37
2018-09-12T01:37:55.531Z,9.97
2018-09-12T01:40:24.109Z,9.80
2018-09-12T01:42:52.721Z,9.33
2018-09-12T01:45:21.292Z,9.13
2018-09-12T01:47:49.913Z,9.73
2018-09-12T01:50:18.473Z,9.20
2018-09-12T01:52:47.655Z,9.63
2018-09-12T01:55:16.516Z,9.57
2018-09-12T01:57:45.153Z,9.47
2018-09-12T02:00:16.896Z,10.00
2018-09-12T02:02:46.160Z,10.03
2018-09-12T02:05:14.792Z,9.20
2018-09-12T02:07:43.401Z,9.30
2018-09-12T02:10:13.239Z,8.77
2018-09-12T02:12:41.836Z,9.13
2018-09-12T02:15:10.407Z,9.63
2018-09-12T02:17:38.996Z,9.60
2018-09-12T02:20:07.627Z,8.90
2018-09-12T02:22:36.218Z,9.80
2018-09-12T02:25:04.882Z,8.80
2018-09-12T02:27:33.473Z,9.80
2018-09-12T02:30:02.035Z,9.23
2018-09-12T02:32:30.604Z,8.90
2018-09-12T02:34:59.184Z,8.20
2018-09-12T02:37:27.784Z,9.83
2018-09-12T02:39:56.456Z,9.23
2018-09-12T02:42:25.315Z,9.23
2018-09-12T02:44:53.906Z,9.70
2018-09-12T02:47:27.848Z,9.37
2018-09-12T02:49:56.421Z,8.97
2018-09-12T02:52:25.018Z,9.80
2018-09-12T02:54:53.598Z,9.47
2018-09-12T02:57:22.180Z,9.50
2018-09-12T02:59:50.818Z,8.83
2018-09-12T03:02:19.450Z,9.87
2018-09-12T03:04:48.017Z,9.37
2018-09-12T03:07:16.626Z,6.47
2018-09-12T03:09:45.200Z,4.27
2018-09-12T03:12:14.164Z,3.80
2018-09-12T03:14:42.740Z,3.77
2018-09-12T03:17:12.002Z,4.00
2018-09-12T03:19:40.573Z,3.80
2018-09-12T03:22:09.176Z,3.57
2018-09-12T03:24:37.867Z,3.80
2018-09-12T03:27:06.473Z,4.00
2018-09-12T03:29:35.058Z,3.73
2018-09-12T03:32:03.693Z,3.63
2018-09-12T03:34:32.277Z,3.27
2018-09-12T03:37:00.837Z,3.63
2018-09-12T03:39:29.433Z,2.90
2018-09-12T03:41:58.007Z,3.23
2018-09-12T03:44:26.619Z,2.47
2018-09-12T03:46:55.209Z,2.50
2018-09-12T03:49:23.797Z,2.67
2018-09-12T03:51:52.964Z,2.60
2018-09-12T03:54:21.542Z,3.50
2018-09-12T03:56:50.089Z,2.50
2018-09-12T03:59:18.669Z,2.83
2018-09-12T04:01:47.232Z,4.70
2018-09-12T04:04:15.824Z,2.30
2018-09-12T04:06:44.379Z,2.00
2018-09-12T04:09:12.961Z,3.50
2018-09-12T04:11:41.530Z,1.27
2018-09-12T04:14:10.122Z,0.70
2018-09-12T04:16:38.735Z,0.50
2018-09-12T04:19:07.297Z,0.63
2018-09-12T04:21:35.867Z,0.60
2018-09-12T04:24:04.490Z,0.60
2018-09-12T04:26:33.053Z,0.60
2018-09-12T04:29:01.652Z,0.60
2018-09-12T04:31:30.227Z,0.60
2018-09-12T04:33:58.809Z,0.80
2018-09-12T04:36:27.389Z,0.70
2018-09-12T04:38:55.955Z,0.70
2018-09-12T04:41:24.507Z,0.70
2018-09-12T04:43:53.146Z,0.70
2018-09-12T04:46:21.701Z,0.90
2018-09-12T04:48:50.309Z,0.70
2018-09-12T04:51:18.858Z,0.57
2018-09-12T04:53:47.433Z,1.57
2018-09-12T04:56:16.007Z,0.80
2018-09-12T04:58:44.584Z,0.93
2018-09-12T05:01:13.144Z,1.40
2018-09-12T05:03:41.715Z,2.60
2018-09-12T05:06:10.275Z,1.30
2018-09-12T05:08:38.846Z,0.90
2018-09-12T05:11:07.422Z,0.83
2018-09-12T05:13:36.001Z,1.20
2018-09-12T05:16:04.707Z,1.20
2018-09-12T05:18:33.311Z,1.20
2018-09-12T05:21:01.885Z,1.10
2018-09-12T05:23:30.487Z,1.27
2018-09-12T05:25:59.039Z,1.30
2018-09-12T05:28:27.681Z,1.30
2018-09-12T05:30:56.245Z,1.40
2018-09-12T05:33:25.104Z,1.67
2018-09-12T05:35:53.670Z,1.57
2018-09-12T05:38:22.283Z,1.40
2018-09-12T05:40:50.877Z,1.30
2018-09-12T05:43:19.456Z,1.30
2018-09-12T05:45:48.049Z,1.70
2018-09-12T05:48:16.689Z,1.10
2018-09-12T05:50:45.291Z,1.50
2018-09-12T05:53:13.850Z,1.70
2018-09-12T05:55:42.460Z,1.87
2018-09-12T05:58:11.013Z,1.23
2018-09-12T06:00:39.617Z,1.50
2018-09-12T06:03:08.193Z,1.57
2018-09-12T06:05:36.790Z,1.70
2018-09-12T06:08:05.390Z,1.47
2018-09-12T06:10:33.986Z,1.40
2018-09-12T06:13:02.569Z,1.77
2018-09-12T06:15:31.181Z,1.30
2018-09-12T06:17:59.755Z,1.57
2018-09-12T06:20:28.344Z,1.57
2018-09-12T06:22:56.921Z,2.10
2018-09-12T06:25:25.517Z,2.40
2018-09-12T06:27:54.125Z,2.90
2018-09-12T06:30:22.724Z,1.87
2018-09-12T06:32:51.292Z,2.30
2018-09-12T06:35:19.885Z,5.43
2018-09-12T06:37:48.480Z,2.63
2018-09-12T06:40:17.083Z,2.00
2018-09-12T06:42:45.670Z,1.50
2018-09-12T06:45:14.273Z,2.23
2018-09-12T06:47:42.844Z,1.47
2018-09-12T06:50:11.436Z,2.00
2018-09-12T06:52:40.003Z,1.50
2018-09-12T06:55:08.597Z,1.63
2018-09-12T06:57:37.160Z,1.87
2018-09-12T07:00:06.300Z,2.10
2018-09-12T07:02:34.874Z,3.40
2018-09-12T07:05:03.560Z,3.37
2018-09-12T07:07:32.172Z,6.63
2018-09-12T07:10:00.766Z,5.17
2018-09-12T07:12:29.411Z,5.30
2018-09-12T07:14:58.000Z,4.93
2018-09-12T07:17:26.558Z,3.93
2018-09-12T07:19:55.135Z,2.87
2018-09-12T07:22:23.707Z,1.40
2018-09-12T07:24:53.052Z,1.20
2018-09-12T07:27:21.630Z,1.30
2018-09-12T07:29:50.194Z,1.20
2018-09-12T07:32:18.775Z,1.10
2018-09-12T07:34:47.367Z,1.30
2018-09-12T07:37:15.932Z,1.63
2018-09-12T07:39:44.514Z,1.20
2018-09-12T07:42:13.097Z,1.33
2018-09-12T07:44:41.648Z,1.77
2018-09-12T07:47:10.238Z,2.90
2018-09-12T07:49:38.832Z,7.63
2018-09-12T07:52:07.436Z,2.33
2018-09-12T07:54:35.989Z,1.70
2018-09-12T07:57:04.580Z,1.90
2018-09-12T07:59:33.156Z,1.47
2018-09-12T08:02:01.754Z,1.20
2018-09-12T08:04:30.349Z,1.83
2018-09-12T08:06:58.936Z,1.57
2018-09-12T08:09:27.506Z,1.17
2018-09-12T08:11:56.115Z,1.73
2018-09-12T08:14:24.680Z,1.53
2018-09-12T08:16:53.299Z,1.20
2018-09-12T08:19:21.882Z,1.23
2018-09-12T08:21:50.480Z,1.50
2018-09-12T08:24:19.041Z,1.10
2018-09-12T08:26:47.695Z,2.33
2018-09-12T08:29:16.271Z,1.53
2018-09-12T08:31:44.864Z,1.30
2018-09-12T08:34:13.434Z,2.30
2018-09-12T08:36:42.038Z,1.50
2018-09-12T08:39:10.999Z,1.43
2018-09-12T08:41:39.596Z,1.70
2018-09-12T08:44:08.620Z,1.33
2018-09-12T08:46:37.258Z,1.30
2018-09-12T08:49:05.902Z,1.20
2018-09-12T08:51:34.504Z,1.40
2018-09-12T08:54:03.087Z,1.23
2018-09-12T08:56:31.684Z,1.20
2018-09-12T08:59:00.258Z,1.20
2018-09-12T09:01:28.961Z,1.70
2018-09-12T09:03:57.522Z,2.13
2018-09-12T09:06:26.191Z,1.97
2018-09-12T09:08:54.788Z,1.40
2018-09-12T09:11:23.404Z,3.27
2018-09-12T09:13:52.027Z,2.70
2018-09-12T09:16:20.628Z,2.20
2018-09-12T09:18:49.215Z,2.70
2018-09-12T09:21:17.800Z,2.30
2018-09-12T09:23:46.415Z,2.10
2018-09-12T09:26:15.024Z,2.73
2018-09-12T09:28:43.610Z,2.57
2018-09-12T09:31:12.214Z,3.60
2018-09-12T09:33:40.791Z,2.70
2018-09-12T09:36:09.391Z,2.87
2018-09-12T09:38:37.974Z,2.90
2018-09-12T09:41:06.743Z,2.50
2018-09-12T09:43:35.301Z,2.80
2018-09-12T09:46:03.884Z,2.97
2018-09-12T09:48:32.519Z,2.87
2018-09-12T09:51:01.124Z,3.00
2018-09-12T09:53:29.721Z,3.50
2018-09-12T09:55:58.352Z,3.67
2018-09-12T09:58:27.024Z,4.00
2018-09-12T10:01:00.631Z,3.70
2018-09-12T10:03:34.590Z,4.30
2018-09-12T10:06:08.285Z,5.17
2018-09-12T10:08:42.006Z,5.30
2018-09-12T10:11:10.601Z,5.50
2018-09-12T10:13:39.188Z,5.43
2018-09-12T10:16:07.789Z,6.00
2018-09-12T10:18:36.393Z,5.53
2018-09-12T10:21:04.999Z,5.80
2018-09-12T10:23:33.620Z,5.07
2018-09-12T10:26:02.192Z,5.20
2018-09-12T10:28:30.794Z,4.70
2018-09-12T10:30:59.363Z,4.33
2018-09-12T10:33:27.975Z,3.40
2018-09-12T10:35:56.556Z,3.60
2018-09-12T10:38:25.147Z,3.50
2018-09-12T10:40:53.757Z,2.20
2018-09-12T10:43:22.362Z,2.30
2018-09-12T10:45:50.940Z,2.40
2018-09-12T10:48:19.559Z,2.17
2018-09-12T10:50:48.124Z,2.73
2018-09-12T10:53:16.742Z,2.20
2018-09-12T10:55:45.311Z,2.30
2018-09-12T10:58:13.915Z,4.70
2018-09-12T11:00:42.491Z,2.40
2018-09-12T11:03:11.077Z,2.57
2018-09-12T11:05:39.658Z,5.90
2018-09-12T11:08:08.264Z,2.90
2018-09-12T11:10:36.869Z,2.60
2018-09-12T11:13:05.502Z,2.40
2018-09-12T11:15:34.074Z,2.63
2018-09-12T11:18:02.655Z,2.33
2018-09-12T11:20:31.237Z,2.00
2018-09-12T11:22:59.853Z,2.90
2018-09-12T11:25:28.454Z,2.10
2018-09-12T11:27:57.056Z,2.00
2018-09-12T11:30:25.634Z,3.10
2018-09-12T11:32:54.221Z,2.13
2018-09-12T11:35:22.766Z,2.73
2018-09-12T11:37:51.365Z,2.60
2018-09-12T11:40:19.911Z,2.83
2018-09-12T11:42:48.493Z,2.83
2018-09-12T11:45:17.051Z,2.67
2018-09-12T11:47:45.634Z,3.37
2018-09-12T11:50:14.197Z,3.00
2018-09-12T11:52:42.806Z,4.20
2018-09-12T11:55:11.360Z,3.37
2018-09-12T11:57:39.943Z,3.60
2018-09-12T12:00:08.553Z,3.60
2018-09-12T12:02:37.170Z,3.33
2018-09-12T12:05:05.814Z,4.40
2018-09-12T12:07:34.373Z,4.20
2018-09-12T12:10:03.008Z,3.43
2018-09-12T12:12:31.586Z,3.67
2018-09-12T12:15:00.168Z,3.60
2018-09-12T12:17:28.725Z,3.43
2018-09-12T12:19:57.314Z,3.37
2018-09-12T12:22:25.878Z,3.70
2018-09-12T12:24:54.477Z,3.57
2018-09-12T12:27:23.065Z,3.70
2018-09-12T12:29:51.650Z,3.97
2018-09-12T12:32:20.287Z,3.80
2018-09-12T12:34:48.877Z,4.13
2018-09-12T12:37:17.439Z,4.40
2018-09-12T12:39:46.029Z,4.77
2018-09-12T12:42:14.608Z,6.40
2018-09-12T12:44:43.203Z,5.73
2018-09-12T12:47:12.751Z,10.30
2018-09-12T12:49:41.379Z,7.63
2018-09-12T12:52:10.003Z,7.10
2018-09-12T12:54:38.651Z,6.37
2018-09-12T12:57:07.372Z,6.30
2018-09-12T12:59:35.968Z,4.77
2018-09-12T13:02:04.531Z,5.00
2018-09-12T13:04:33.126Z,7.13
2018-09-12T13:07:01.723Z,5.53
2018-09-12T13:09:30.296Z,6.10
2018-09-12T13:11:58.861Z,6.87
2018-09-12T13:14:27.463Z,6.80
2018-09-12T13:16:56.030Z,7.03
2018-09-12T13:19:24.617Z,7.70
2018-09-12T13:21:53.245Z,6.00
2018-09-12T13:24:21.788Z,6.97
2018-09-12T13:26:50.344Z,6.80
2018-09-12T13:29:18.983Z,6.40
2018-09-12T13:31:47.540Z,6.50
2018-09-12T13:34:16.144Z,5.27
2018-09-12T13:36:44.735Z,7.13
2018-09-12T13:39:15.986Z,6.10
2018-09-12T13:41:44.553Z,5.27
2018-09-12T13:44:13.141Z,4.97
2018-09-12T13:46:41.705Z,4.83
2018-09-12T13:49:10.291Z,4.70
2018-09-12T13:51:38.868Z,4.83
2018-09-12T13:54:07.502Z,4.70
2018-09-12T13:56:36.119Z,4.30
2018-09-12T13:59:04.753Z,4.57
2018-09-12T14:01:33.330Z,4.40
2018-09-12T14:04:01.942Z,3.93
2018-09-12T14:06:30.521Z,3.83
2018-09-12T14:08:59.276Z,3.23
2018-09-12T14:11:27.795Z,3.60
2018-09-12T14:13:56.424Z,3.20
2018-09-12T14:16:25.020Z,4.40
2018-09-12T14:18:53.593Z,1.90
2018-09-12T14:21:22.186Z,2.10
2018-09-12T14:23:50.768Z,2.87
2018-09-12T14:26:19.380Z,2.70
2018-09-12T14:28:48.026Z,2.97
2018-09-12T14:31:16.689Z,1.90
2018-09-12T14:33:45.265Z,3.57
2018-09-12T14:36:13.848Z,4.63
2018-09-12T14:38:42.508Z,2.43
2018-09-12T14:41:11.102Z,1.20
2018-09-12T14:43:39.671Z,1.63
2018-09-12T14:46:08.626Z,1.50
2018-09-12T14:48:37.205Z,1.53
2018-09-12T14:51:06.033Z,1.50
2018-09-12T14:53:34.609Z,1.40
2018-09-12T14:56:03.201Z,1.60
2018-09-12T14:58:31.816Z,2.43
2018-09-12T15:01:00.412Z,2.43
2018-09-12T15:03:28.985Z,1.50
2018-09-12T15:05:57.583Z,1.50
2018-09-12T15:08:26.165Z,1.37
2018-09-12T15:10:54.763Z,2.07
2018-09-12T15:13:23.345Z,1.67
2018-09-12T15:15:51.956Z,1.37
2018-09-12T15:18:20.543Z,1.60
2018-09-12T15:20:49.148Z,1.57
2018-09-12T15:23:17.724Z,1.70
2018-09-12T15:25:46.325Z,2.00
2018-09-12T15:28:14.976Z,1.43
2018-09-12T15:30:43.574Z,1.80
2018-09-12T15:33:12.142Z,2.07
2018-09-12T15:35:40.740Z,1.90
2018-09-12T15:38:09.321Z,1.30
2018-09-12T15:40:37.914Z,1.27
2018-09-12T15:43:06.740Z,1.77
2018-09-12T15:45:35.337Z,1.50
2018-09-12T15:48:03.910Z,1.80
2018-09-12T15:50:32.506Z,1.93
2018-09-12T15:53:01.086Z,1.57
2018-09-12T15:55:29.678Z,1.20
2018-09-12T15:57:58.285Z,1.10
2018-09-12T16:00:26.895Z,1.10
2018-09-12T16:02:55.460Z,1.13
2018-09-12T16:05:24.063Z,1.30
2018-09-12T16:07:52.647Z,1.30
2018-09-12T16:10:21.235Z,1.43
2018-09-12T16:12:49.801Z,1.50
2018-09-12T16:15:18.455Z,1.03
2018-09-12T16:17:47.035Z,1.10
2018-09-12T16:20:15.603Z,1.27
2018-09-12T16:22:44.341Z,1.33
2018-09-12T16:25:12.913Z,1.03
2018-09-12T16:27:41.532Z,1.00
2018-09-12T16:30:10.101Z,1.10
2018-09-12T16:32:38.761Z,1.20
2018-09-12T16:35:07.315Z,1.37
2018-09-12T16:37:35.911Z,1.47
2018-09-12T16:43:00.469Z,1.13
2018-09-12T16:45:29.048Z,1.40
2018-09-12T16:47:57.654Z,1.13
2018-09-12T16:50:26.246Z,1.53
2018-09-12T16:52:54.869Z,1.63
2018-09-12T16:55:23.441Z,1.80
2018-09-12T16:57:52.033Z,1.27
2018-09-12T17:00:20.625Z,1.30
2018-09-12T17:02:49.263Z,1.57
2018-09-12T17:05:17.837Z,2.07
2018-09-12T17:07:46.435Z,1.50
2018-09-12T17:10:14.997Z,1.10
2018-09-12T17:12:43.593Z,1.07
2018-09-12T17:15:12.177Z,1.10
2018-09-12T17:17:40.769Z,2.03
2018-09-12T17:20:09.372Z,1.10
2018-09-12T17:22:37.961Z,1.00
2018-09-12T17:25:06.581Z,1.00
2018-09-12T17:27:35.216Z,0.90
2018-09-12T17:30:03.837Z,1.00
2018-09-12T17:32:32.485Z,1.00
2018-09-12T17:35:01.014Z,1.00
2018-09-12T17:37:29.597Z,0.90
2018-09-12T17:39:58.160Z,1.00
2018-09-12T17:42:26.770Z,0.77
2018-09-12T17:44:55.384Z,1.07
2018-09-12T17:47:23.987Z,1.10
2018-09-12T17:49:52.577Z,0.80
2018-09-12T17:52:21.171Z,1.00
2018-09-12T17:54:49.733Z,0.90
2018-09-12T17:57:18.321Z,0.97
2018-09-12T17:59:46.969Z,0.90
2018-09-12T18:02:15.611Z,0.87
2018-09-12T18:04:44.182Z,0.80
2018-09-12T18:07:12.780Z,1.00
2018-09-12T18:09:41.382Z,0.90
2018-09-12T18:12:09.979Z,0.83
2018-09-12T18:14:38.554Z,0.80
2018-09-12T18:17:07.145Z,0.70
2018-09-12T18:19:35.719Z,0.93
2018-09-12T18:22:04.335Z,0.80
2018-09-12T18:24:33.636Z,1.10
2018-09-12T18:27:02.329Z,0.70
2018-09-12T18:29:31.042Z,0.70
2018-09-12T18:31:59.626Z,1.00
2018-09-12T18:34:28.248Z,1.20
2018-09-12T18:36:56.882Z,1.10
2018-09-12T18:39:25.523Z,1.10
2018-09-12T18:41:54.068Z,1.10
2018-09-12T18:44:22.635Z,1.10
2018-09-12T18:46:51.249Z,0.90
2018-09-12T18:49:19.795Z,1.07
2018-09-12T18:51:48.372Z,0.90
2018-09-12T18:54:16.949Z,1.10
2018-09-12T18:56:45.511Z,1.03
2018-09-12T18:59:14.082Z,1.00
2018-09-12T19:01:42.632Z,1.10
2018-09-12T19:04:11.205Z,0.90
2018-09-12T19:06:39.808Z,0.90
2018-09-12T19:09:09.990Z,1.03
2018-09-12T19:11:38.545Z,1.00
2018-09-12T19:14:07.135Z,0.90
2018-09-12T19:16:35.700Z,0.87
2018-09-12T19:19:04.293Z,1.00
2018-09-12T19:21:32.866Z,0.83
2018-09-12T19:24:01.493Z,0.90
2018-09-12T19:26:30.137Z,1.00
2018-09-12T19:28:58.728Z,0.93
2018-09-12T19:31:27.310Z,0.97
2018-09-12T19:33:55.949Z,0.97
2018-09-12T19:36:24.503Z,0.90
2018-09-12T19:38:53.114Z,0.90
2018-09-12T19:41:21.681Z,1.00
2018-09-12T19:43:50.270Z,0.83
2018-09-12T19:46:18.883Z,0.87
2018-09-12T19:48:47.481Z,0.93
2018-09-12T19:51:17.162Z,1.10
2018-09-12T19:53:46.173Z,0.80
2018-09-12T19:56:15.477Z,1.00
2018-09-12T19:58:44.932Z,1.10
2018-09-12T20:01:13.550Z,1.00
2018-09-12T20:03:42.147Z,0.80
2018-09-12T20:06:10.730Z,0.80
2018-09-12T20:08:39.324Z,0.90
2018-09-12T20:11:08.044Z,0.90
2018-09-12T20:13:36.668Z,0.80
2018-09-12T20:16:05.257Z,0.80
2018-09-12T20:18:34.222Z,1.20
2018-09-12T20:21:02.845Z,1.00
2018-09-12T20:23:31.456Z,0.90
2018-09-12T20:26:00.064Z,1.00
2018-09-12T20:28:28.704Z,1.07
2018-09-12T20:30:57.274Z,1.50
2018-09-12T20:33:26.189Z,1.57
2018-09-12T20:35:54.786Z,1.60
2018-09-12T20:38:23.364Z,1.37
2018-09-12T20:40:51.923Z,1.70
2018-09-12T20:43:20.492Z,1.23
2018-09-12T20:45:49.057Z,1.40
2018-09-12T20:48:17.663Z,1.30
2018-09-12T20:50:46.231Z,1.13
2018-09-12T20:53:14.803Z,1.20
2018-09-12T20:55:43.373Z,1.23
2018-09-12T20:58:11.922Z,1.10
2018-09-12T21:00:40.511Z,1.27
2018-09-12T21:03:09.061Z,1.53
2018-09-12T21:05:37.649Z,1.47
2018-09-12T21:08:06.228Z,1.40
2018-09-12T21:10:34.800Z,1.10
2018-09-12T21:13:03.353Z,1.20
2018-09-12T21:15:31.940Z,1.20
2018-09-12T21:18:00.575Z,1.10
2018-09-12T21:20:29.160Z,1.10
2018-09-12T21:22:57.729Z,1.03
2018-09-12T21:25:26.311Z,1.10
2018-09-12T21:27:54.889Z,1.00
2018-09-12T21:30:23.481Z,0.90
2018-09-12T21:32:52.037Z,1.10
2018-09-12T21:35:20.614Z,1.20
2018-09-12T21:37:49.180Z,1.10
2018-09-12T21:40:17.760Z,1.20
2018-09-12T21:42:46.306Z,1.23
2018-09-12T21:45:14.916Z,1.00
2018-09-12T21:47:43.456Z,1.10
2018-09-12T21:50:12.033Z,1.17
2018-09-12T21:52:40.600Z,1.27
2018-09-12T21:55:09.199Z,1.10
2018-09-12T21:57:37.765Z,1.20
2018-09-12T22:00:06.765Z,1.07
2018-09-12T22:02:35.376Z,1.30
2018-09-12T22:05:03.969Z,1.57
2018-09-12T22:07:32.517Z,1.17
2018-09-12T22:10:01.116Z,1.30
2018-09-12T22:12:29.651Z,0.90
2018-09-12T22:14:58.324Z,1.17
2018-09-12T22:17:26.874Z,1.00
2018-09-12T22:19:55.450Z,1.07
2018-09-12T22:22:24.045Z,1.40
2018-09-12T22:24:52.625Z,1.17
2018-09-12T22:27:21.185Z,1.00
2018-09-12T22:29:49.795Z,1.23
2018-09-12T22:32:18.377Z,1.20
2018-09-12T22:34:46.967Z,1.20
2018-09-12T22:37:15.525Z,1.30
2018-09-12T22:39:44.117Z,1.50
2018-09-12T22:42:12.684Z,1.10
2018-09-12T22:44:41.257Z,1.20
2018-09-12T22:47:09.863Z,1.37
2018-09-12T22:49:38.440Z,1.20
2018-09-12T22:52:07.201Z,1.30
2018-09-12T22:54:35.773Z,1.53
2018-09-12T22:57:04.381Z,1.83
2018-09-12T22:59:32.952Z,1.23
2018-09-12T23:02:01.570Z,1.40
2018-09-12T23:04:30.137Z,1.20
2018-09-12T23:06:58.734Z,1.20
2018-09-12T23:09:27.309Z,1.30
2018-09-12T23:11:55.912Z,1.20
2018-09-12T23:14:24.484Z,1.40
2018-09-12T23:16:53.131Z,1.27
2018-09-12T23:19:21.660Z,1.60
2018-09-12T23:21:50.331Z,1.37
2018-09-12T23:24:18.904Z,1.30
2018-09-12T23:26:47.481Z,1.63
2018-09-12T23:29:16.197Z,1.33
2018-09-12T23:31:44.796Z,1.50
2018-09-12T23:34:13.348Z,2.00
2018-09-12T23:36:41.932Z,1.63
2018-09-12T23:39:12.532Z,1.70
2018-09-12T23:41:41.570Z,1.33
2018-09-12T23:44:10.750Z,1.67
2018-09-12T23:46:39.457Z,1.47
2018-09-12T23:49:09.014Z,1.60
2018-09-12T23:51:37.928Z,1.77
2018-09-12T23:54:06.808Z,1.73
2018-09-12T23:56:35.450Z,1.20
2018-09-12T23:59:04.041Z,1.77
